createdAt,value
2023-05-20T00:00:25.751Z,27.57
2023-05-20T00:02:58.191Z,27.58
2023-05-20T00:05:28.792Z,27.58
2023-05-20T00:08:00.165Z,27.58
2023-05-20T00:10:31.304Z,27.55
2023-05-20T00:13:01.383Z,27.53
2023-05-20T00:15:32.588Z,27.51
2023-05-20T00:18:06.349Z,27.48
2023-05-20T00:20:36.857Z,27.47
2023-05-20T00:23:07.711Z,27.46
2023-05-20T00:25:38.312Z,27.41
2023-05-20T00:28:09.528Z,27.39
2023-05-20T00:30:42.623Z,27.39
2023-05-20T00:33:15.261Z,27.40
2023-05-20T00:35:46.157Z,27.39
2023-05-20T00:38:16.617Z,27.37
2023-05-20T00:40:47.306Z,27.36
2023-05-20T00:43:17.488Z,27.35
2023-05-20T00:45:48.959Z,27.34
2023-05-20T00:48:22.229Z,27.33
2023-05-20T00:50:54.562Z,27.31
2023-05-20T00:53:25.503Z,27.28
2023-05-20T00:55:56.110Z,27.26
2023-05-20T00:58:26.663Z,27.21
2023-05-20T01:00:58.185Z,27.17
2023-05-20T01:03:31.393Z,27.16
2023-05-20T01:06:02.282Z,27.10
2023-05-20T01:08:32.898Z,27.08
2023-05-20T01:11:11.220Z,27.07
2023-05-20T01:13:49.363Z,27.06
2023-05-20T01:16:23.758Z,27.02
2023-05-20T01:19:00.768Z,26.97
2023-05-20T01:21:33.700Z,26.94
2023-05-20T01:24:06.714Z,26.90
2023-05-20T01:26:38.795Z,26.86
2023-05-20T01:29:09.391Z,26.83
2023-05-20T01:31:41.703Z,26.83
2023-05-20T01:34:13.346Z,26.81
2023-05-20T01:36:45.511Z,26.80
2023-05-20T01:39:19.562Z,26.78
2023-05-20T01:41:51.282Z,26.77
2023-05-20T01:44:21.784Z,26.76
2023-05-20T01:46:53.017Z,26.76
2023-05-20T01:49:23.810Z,26.74
2023-05-20T01:51:54.190Z,26.71
2023-05-20T01:54:26.726Z,26.70
2023-05-20T01:56:58.327Z,26.69
2023-05-20T01:59:28.495Z,26.68
2023-05-20T02:01:59.220Z,26.67
2023-05-20T02:04:29.678Z,26.66
2023-05-20T02:07:00.188Z,26.64
2023-05-20T02:09:32.277Z,26.61
2023-05-20T02:12:02.906Z,26.59
2023-05-20T02:14:33.183Z,26.57
2023-05-20T02:17:03.649Z,26.56
2023-05-20T02:19:35.659Z,26.56
2023-05-20T02:22:06.446Z,26.54
2023-05-20T02:24:38.891Z,26.55
2023-05-20T02:27:09.760Z,26.53
2023-05-20T02:29:40.543Z,26.52
2023-05-20T02:32:11.740Z,26.51
2023-05-20T02:34:42.600Z,26.53
2023-05-20T02:37:12.996Z,26.54
2023-05-20T02:39:44.885Z,26.56
2023-05-20T02:42:16.260Z,26.56
2023-05-20T02:44:47.544Z,26.55
2023-05-20T02:47:18.628Z,26.54
2023-05-20T02:49:49.190Z,26.54
2023-05-20T02:52:19.806Z,26.50
2023-05-20T02:54:53.380Z,26.48
2023-05-20T02:57:23.989Z,26.45
2023-05-20T02:59:55.120Z,26.46
2023-05-20T03:02:25.840Z,26.45
2023-05-20T03:04:56.500Z,26.45
2023-05-20T03:07:27.067Z,26.44
2023-05-20T03:09:59.602Z,26.43
2023-05-20T03:12:29.529Z,26.41
2023-05-20T03:15:01.372Z,26.40
2023-05-20T03:17:32.346Z,26.38
2023-05-20T03:20:04.442Z,26.36
2023-05-20T03:22:35.003Z,26.34
2023-05-20T03:25:07.689Z,26.32
2023-05-20T03:27:38.851Z,26.30
2023-05-20T03:30:11.439Z,26.29
2023-05-20T03:32:42.641Z,26.29
2023-05-20T03:35:13.394Z,26.28
2023-05-20T03:37:44.407Z,26.29
2023-05-20T03:40:17.358Z,26.29
2023-05-20T03:42:47.141Z,26.29
2023-05-20T03:45:18.127Z,26.31
2023-05-20T03:47:48.471Z,26.30
2023-05-20T03:50:19.022Z,26.30
2023-05-20T03:52:49.825Z,26.31
2023-05-20T03:55:22.223Z,26.33
2023-05-20T03:57:52.800Z,26.35
2023-05-20T04:00:23.198Z,26.35
2023-05-20T04:02:54.568Z,26.36
2023-05-20T04:05:26.406Z,26.35
2023-05-20T04:07:57.952Z,26.35
2023-05-20T04:10:31.567Z,26.34
2023-05-20T04:13:02.540Z,26.32
2023-05-20T04:15:35.653Z,26.30
2023-05-20T04:18:06.290Z,26.27
2023-05-20T04:20:36.602Z,26.28
2023-05-20T04:23:07.491Z,26.28
2023-05-20T04:25:41.681Z,26.31
2023-05-20T04:28:14.471Z,26.35
2023-05-20T04:30:45.609Z,26.39
2023-05-20T04:33:15.738Z,26.43
2023-05-20T04:35:48.904Z,26.49
2023-05-20T04:38:19.802Z,26.56
2023-05-20T04:40:52.206Z,26.58
2023-05-20T04:43:23.440Z,26.61
2023-05-20T04:45:53.933Z,26.63
2023-05-20T04:48:24.409Z,26.66
2023-05-20T04:50:55.375Z,26.71
2023-05-20T04:53:25.971Z,26.72
2023-05-20T04:56:00.611Z,26.73
2023-05-20T04:58:32.125Z,26.77
2023-05-20T05:01:03.456Z,26.81
2023-05-20T05:03:35.938Z,26.86
2023-05-20T05:06:06.990Z,26.87
2023-05-20T05:08:37.541Z,26.89
2023-05-20T05:11:11.146Z,26.94
2023-05-20T05:13:41.197Z,26.98
2023-05-20T05:16:11.595Z,27.01
2023-05-20T05:18:42.156Z,27.04
2023-05-20T05:21:12.685Z,27.08
2023-05-20T05:23:43.241Z,27.12
2023-05-20T05:26:15.357Z,27.12
2023-05-20T05:28:46.016Z,27.14
2023-05-20T05:31:16.101Z,27.17
2023-05-20T05:33:46.309Z,27.20
2023-05-20T05:36:17.121Z,27.23
2023-05-20T05:38:47.386Z,27.27
2023-05-20T05:41:19.970Z,27.32
2023-05-20T05:43:49.763Z,27.34
2023-05-20T05:46:20.081Z,27.36
2023-05-20T05:48:51.349Z,27.40
2023-05-20T05:51:22.661Z,27.41
2023-05-20T05:53:53.065Z,27.44
2023-05-20T05:56:25.365Z,27.47
2023-05-20T05:58:55.469Z,27.50
2023-05-20T06:01:25.505Z,27.54
2023-05-20T06:03:56.208Z,27.58
2023-05-20T06:06:26.743Z,27.62
2023-05-20T06:08:57.000Z,27.64
2023-05-20T06:11:32.921Z,27.66
2023-05-20T06:14:04.389Z,27.70
2023-05-20T06:16:34.729Z,27.73
2023-05-20T06:19:05.924Z,27.74
2023-05-20T06:21:37.440Z,27.76
2023-05-20T06:24:08.589Z,27.78
2023-05-20T06:26:41.714Z,27.80
2023-05-20T06:29:11.795Z,27.82
2023-05-20T06:31:44.726Z,27.84
2023-05-20T06:34:15.252Z,27.85
2023-05-20T06:36:44.997Z,27.84
2023-05-20T06:39:15.640Z,27.87
2023-05-20T06:41:47.998Z,27.91
2023-05-20T06:44:18.431Z,27.94
2023-05-20T06:46:48.952Z,27.97
2023-05-20T06:49:19.599Z,28.03
2023-05-20T06:51:50.993Z,28.09
2023-05-20T06:54:22.458Z,28.14
2023-05-20T06:57:04.274Z,28.18
2023-05-20T06:59:34.638Z,28.20
2023-05-20T07:02:05.282Z,28.22
2023-05-20T07:04:36.066Z,28.23
2023-05-20T07:07:06.530Z,28.26
2023-05-20T07:09:38.352Z,28.30
2023-05-20T07:12:11.356Z,28.36
2023-05-20T07:14:41.464Z,28.42
2023-05-20T07:17:12.015Z,28.50
2023-05-20T07:19:42.282Z,28.55
2023-05-20T07:22:13.500Z,28.59
2023-05-20T07:24:44.442Z,28.63
2023-05-20T07:27:17.822Z,28.65
2023-05-20T07:29:48.291Z,28.68
2023-05-20T07:32:19.036Z,28.74
2023-05-20T07:34:49.394Z,28.80
2023-05-20T07:37:20.537Z,28.85
2023-05-20T07:39:51.690Z,28.92
2023-05-20T07:42:24.339Z,29.00
2023-05-20T07:44:54.648Z,29.07
2023-05-20T07:47:24.900Z,29.12
2023-05-20T07:49:55.190Z,29.16
2023-05-20T07:52:25.722Z,29.21
2023-05-20T07:54:55.449Z,29.27
2023-05-20T07:57:27.207Z,29.34
2023-05-20T07:59:57.992Z,29.37
2023-05-20T08:02:28.977Z,29.38
2023-05-20T08:04:59.403Z,29.40
2023-05-20T08:07:30.073Z,29.40
2023-05-20T08:10:01.489Z,29.43
2023-05-20T08:12:34.031Z,29.44
2023-05-20T08:15:04.055Z,29.48
2023-05-20T08:17:36.016Z,29.53
2023-05-20T08:20:08.557Z,29.58
2023-05-20T08:22:39.130Z,29.64
2023-05-20T08:25:11.858Z,29.69
2023-05-20T08:27:44.628Z,29.73
2023-05-20T08:30:15.763Z,29.76
2023-05-20T08:32:46.664Z,29.80
2023-05-20T08:35:17.483Z,29.83
2023-05-20T08:37:48.107Z,29.87
2023-05-20T08:40:19.096Z,29.90
2023-05-20T08:42:53.503Z,29.95
2023-05-20T08:45:28.993Z,30.00
2023-05-20T08:48:00.909Z,30.06
2023-05-20T08:50:30.952Z,30.10
2023-05-20T08:53:02.783Z,30.13
2023-05-20T08:55:45.488Z,30.12
2023-05-20T08:58:19.880Z,30.13
2023-05-20T09:00:50.171Z,30.16
2023-05-20T09:03:20.856Z,30.18
2023-05-20T09:05:51.339Z,30.19
2023-05-20T09:08:27.689Z,30.21
2023-05-20T09:10:58.353Z,30.22
2023-05-20T09:13:32.919Z,30.25
2023-05-20T09:16:05.373Z,30.25
2023-05-20T09:18:37.213Z,30.26
2023-05-20T09:21:09.936Z,30.29
2023-05-20T09:23:41.025Z,30.32
2023-05-20T09:26:11.578Z,30.36
2023-05-20T09:28:44.203Z,30.41
2023-05-20T09:31:17.737Z,30.44
2023-05-20T09:33:47.787Z,30.46
2023-05-20T09:36:19.244Z,30.48
2023-05-20T09:38:56.039Z,30.46
2023-05-20T09:41:36.890Z,30.45
2023-05-20T09:44:12.143Z,30.45
2023-05-20T09:46:44.525Z,30.47
2023-05-20T09:49:17.012Z,30.48
2023-05-20T09:51:48.893Z,30.52
2023-05-20T09:54:23.301Z,30.53
2023-05-20T09:56:56.470Z,30.55
2023-05-20T09:59:32.454Z,30.59
2023-05-20T10:02:03.307Z,30.59
2023-05-20T10:04:37.336Z,30.61
2023-05-20T10:07:42.133Z,30.63
2023-05-20T10:10:37.514Z,30.62
2023-05-20T10:13:28.511Z,30.61
2023-05-20T10:16:12.276Z,30.63
2023-05-20T10:18:59.133Z,30.65
2023-05-20T10:21:32.450Z,30.67
2023-05-20T10:24:10.785Z,30.70
2023-05-20T10:26:48.145Z,30.72
2023-05-20T10:29:25.857Z,30.74
2023-05-20T10:32:03.409Z,30.73
2023-05-20T10:34:51.752Z,30.74
2023-05-20T10:37:30.049Z,30.75
2023-05-20T10:40:13.984Z,30.74
2023-05-20T10:42:46.747Z,30.74
2023-05-20T10:45:30.160Z,30.75
2023-05-20T10:48:04.015Z,30.75
2023-05-20T10:50:49.644Z,30.75
2023-05-20T10:53:29.655Z,30.75
2023-05-20T10:56:07.267Z,30.76
2023-05-20T10:58:42.997Z,30.77
2023-05-20T11:01:15.859Z,30.77
2023-05-20T11:03:52.461Z,30.78
2023-05-20T11:06:30.407Z,30.77
2023-05-20T11:09:09.709Z,30.76
2023-05-20T11:11:42.377Z,30.75
2023-05-20T11:14:17.045Z,30.76
2023-05-20T11:16:53.172Z,30.74
2023-05-20T11:19:28.641Z,30.73
2023-05-20T11:22:01.318Z,30.72
2023-05-20T11:24:32.812Z,30.72
2023-05-20T11:27:09.775Z,30.73
2023-05-20T11:29:44.379Z,30.75
2023-05-20T11:32:21.133Z,30.76
2023-05-20T11:34:57.996Z,30.75
2023-05-20T11:37:32.714Z,30.75
2023-05-20T11:40:16.537Z,30.73
2023-05-20T11:42:49.526Z,30.69
2023-05-20T11:45:44.794Z,30.64
2023-05-20T11:48:17.513Z,30.59
2023-05-20T11:50:52.736Z,30.55
2023-05-20T11:56:53.653Z,30.51
2023-05-20T11:59:30.187Z,30.51
2023-05-20T12:02:00.381Z,30.49
2023-05-20T12:04:32.754Z,30.51
2023-05-20T12:07:10.166Z,30.49
2023-05-20T12:09:41.788Z,30.47
2023-05-20T12:12:16.561Z,30.46
2023-05-20T12:14:47.958Z,30.43
2023-05-20T12:17:21.195Z,30.42
2023-05-20T12:19:54.667Z,30.42
2023-05-20T12:22:31.211Z,30.43
2023-05-20T12:25:03.401Z,30.45
2023-05-20T12:27:37.179Z,30.44
2023-05-20T12:30:14.356Z,30.44
2023-05-20T12:32:49.935Z,30.41
2023-05-20T12:35:30.322Z,30.39
2023-05-20T12:38:03.658Z,30.36
2023-05-20T12:40:36.557Z,30.33
2023-05-20T12:43:09.433Z,30.28
2023-05-20T12:45:41.211Z,30.28
2023-05-20T12:48:11.744Z,30.27
2023-05-20T12:50:44.167Z,30.28
2023-05-20T12:53:20.638Z,30.29
2023-05-20T12:55:53.019Z,30.27
2023-05-20T12:58:24.760Z,30.24
2023-05-20T13:01:01.244Z,30.23
2023-05-20T13:03:37.725Z,30.21
2023-05-20T13:06:11.035Z,30.20
2023-05-20T13:08:44.001Z,30.20
2023-05-20T13:11:17.217Z,30.20
2023-05-20T13:13:53.890Z,30.20
2023-05-20T13:16:26.826Z,30.16
2023-05-20T13:19:02.598Z,30.12
2023-05-20T13:21:36.770Z,30.06
2023-05-20T13:24:14.103Z,30.04
2023-05-20T13:26:49.376Z,30.01
2023-05-20T13:29:22.558Z,30.00
2023-05-20T13:31:53.829Z,30.01
2023-05-20T13:34:25.980Z,30.00
2023-05-20T13:36:57.658Z,30.02
2023-05-20T13:39:37.632Z,30.02
2023-05-20T13:42:10.033Z,30.01
2023-05-20T13:44:41.816Z,30.02
2023-05-20T13:47:13.188Z,29.99
2023-05-20T13:49:54.866Z,29.99
2023-05-20T13:52:33.961Z,29.98
2023-05-20T13:55:11.720Z,29.96
2023-05-20T13:57:45.199Z,29.92
2023-05-20T14:00:20.993Z,29.89
2023-05-20T14:02:58.151Z,29.87
2023-05-20T14:05:30.684Z,29.84
2023-05-20T14:08:09.217Z,29.82
2023-05-20T14:10:45.255Z,29.78
2023-05-20T14:13:19.921Z,29.77
2023-05-20T14:15:53.126Z,29.76
2023-05-20T14:18:26.870Z,29.73
2023-05-20T14:21:02.163Z,29.72
2023-05-20T14:23:36.816Z,29.69
2023-05-20T14:26:13.888Z,29.66
2023-05-20T14:28:46.790Z,29.64
2023-05-20T14:31:23.196Z,29.63
2023-05-20T14:33:56.705Z,29.63
2023-05-20T14:36:32.724Z,29.63
2023-05-20T14:39:12.649Z,29.63
2023-05-20T14:41:51.726Z,29.63
2023-05-20T14:44:27.468Z,29.61
2023-05-20T14:47:04.456Z,29.61
2023-05-20T14:49:40.573Z,29.60
2023-05-20T14:52:15.515Z,29.58
2023-05-20T14:54:55.748Z,29.57
2023-05-20T14:57:35.589Z,29.53
2023-05-20T15:00:12.996Z,29.47
2023-05-20T15:02:47.294Z,29.40
2023-05-20T15:05:20.928Z,29.34
2023-05-20T15:07:53.535Z,29.30
2023-05-20T15:10:31.949Z,29.25
2023-05-20T15:13:06.297Z,29.20
2023-05-20T15:15:42.482Z,29.18
2023-05-20T15:18:17.263Z,29.12
2023-05-20T15:20:56.260Z,29.07
2023-05-20T15:23:31.638Z,29.04
2023-05-20T15:26:03.406Z,29.02
2023-05-20T15:28:39.232Z,29.03
2023-05-20T15:31:13.541Z,29.04
2023-05-20T15:33:45.786Z,29.06
2023-05-20T15:36:28.988Z,29.06
2023-05-20T15:39:02.504Z,29.06
2023-05-20T15:41:39.946Z,29.07
2023-05-20T15:44:23.293Z,29.03
2023-05-20T15:46:54.596Z,28.97
2023-05-20T15:49:31.642Z,28.91
2023-05-20T15:52:04.449Z,28.84
2023-05-20T15:54:37.795Z,28.79
2023-05-20T15:57:15.843Z,28.76
2023-05-20T16:00:06.436Z,28.73
2023-05-20T16:02:43.809Z,28.71
2023-05-20T16:05:15.508Z,28.72
2023-05-20T16:07:50.060Z,28.74
2023-05-20T16:10:25.893Z,28.74
2023-05-20T16:12:59.847Z,28.73
2023-05-20T16:15:40.365Z,28.74
2023-05-20T16:18:19.230Z,28.73
2023-05-20T16:20:50.504Z,28.70
2023-05-20T16:23:24.223Z,28.68
2023-05-20T16:25:59.363Z,28.68
2023-05-20T16:28:36.056Z,28.68
2023-05-20T16:31:10.369Z,28.68
2023-05-20T16:33:43.875Z,28.63
2023-05-20T16:36:19.308Z,28.61
2023-05-20T16:38:59.104Z,28.63
2023-05-20T16:41:34.862Z,28.61
2023-05-20T16:44:13.904Z,28.60
2023-05-20T16:46:59.175Z,28.56
2023-05-20T16:49:32.149Z,28.47
2023-05-20T16:52:16.820Z,28.44
2023-05-20T16:54:51.264Z,28.44
2023-05-20T16:57:25.156Z,28.43
2023-05-20T16:59:55.528Z,28.43
2023-05-20T17:02:28.133Z,28.44
2023-05-20T17:04:59.313Z,28.45
2023-05-20T17:07:41.490Z,28.47
2023-05-20T17:10:12.885Z,28.44
2023-05-20T17:12:43.158Z,28.42
2023-05-20T17:15:13.299Z,28.38
2023-05-20T17:17:45.727Z,28.33
2023-05-20T17:20:18.989Z,28.28
2023-05-20T17:22:49.447Z,28.27
2023-05-20T17:25:20.084Z,28.29
2023-05-20T17:27:50.049Z,28.31
2023-05-20T17:30:20.597Z,28.32
2023-05-20T17:32:54.064Z,28.32
2023-05-20T17:35:26.158Z,28.27
2023-05-20T17:37:59.285Z,28.23
2023-05-20T17:40:30.117Z,28.25
2023-05-20T17:43:02.834Z,28.24
2023-05-20T17:45:32.729Z,28.25
2023-05-20T17:48:08.859Z,28.25
2023-05-20T17:50:40.181Z,28.26
2023-05-20T17:53:10.366Z,28.24
2023-05-20T17:55:41.211Z,28.23
2023-05-20T17:58:12.014Z,28.18
2023-05-20T18:00:43.286Z,28.12
2023-05-20T18:03:15.734Z,28.10
2023-05-20T18:05:46.546Z,28.04
2023-05-20T18:08:19.585Z,28.03
2023-05-20T18:10:50.047Z,28.01
2023-05-20T18:13:20.526Z,28.00
2023-05-20T18:15:50.771Z,27.98
2023-05-20T18:18:22.912Z,27.96
2023-05-20T18:20:53.991Z,27.95
2023-05-20T18:23:24.398Z,27.94
2023-05-20T18:25:54.532Z,27.93
2023-05-20T18:28:24.649Z,27.91
2023-05-20T18:30:56.001Z,27.92
2023-05-20T18:33:28.367Z,27.93
2023-05-20T18:35:58.813Z,27.92
2023-05-20T18:38:29.238Z,27.89
2023-05-20T18:40:59.751Z,27.87
2023-05-20T18:43:29.636Z,27.86
2023-05-20T18:46:00.448Z,27.87
2023-05-20T18:48:33.165Z,27.88
2023-05-20T18:51:05.075Z,27.85
2023-05-20T18:53:35.674Z,27.82
2023-05-20T18:56:06.249Z,27.80
2023-05-20T18:58:36.845Z,27.82
2023-05-20T19:01:07.572Z,27.85
2023-05-20T19:03:39.573Z,27.85
2023-05-20T19:06:09.749Z,27.85
2023-05-20T19:08:39.511Z,27.85
2023-05-20T19:11:10.431Z,27.86
2023-05-20T19:13:40.754Z,27.83
2023-05-20T19:16:11.328Z,27.81
2023-05-20T19:18:44.054Z,27.78
2023-05-20T19:21:14.427Z,27.76
2023-05-20T19:23:44.491Z,27.76
2023-05-20T19:26:15.203Z,27.78
2023-05-20T19:28:45.591Z,27.79
2023-05-20T19:31:21.370Z,27.80
2023-05-20T19:33:59.404Z,27.84
2023-05-20T19:36:35.787Z,27.83
2023-05-20T19:39:10.922Z,27.84
2023-05-20T19:41:51.122Z,27.84
2023-05-20T19:44:28.484Z,27.85
2023-05-20T19:47:00.573Z,27.87
2023-05-20T19:49:38.896Z,27.90
2023-05-20T19:52:13.875Z,27.91
2023-05-20T19:54:47.319Z,27.92
2023-05-20T20:01:51.669Z,27.93
2023-05-20T20:04:34.447Z,27.94
2023-05-20T20:07:08.487Z,27.94
2023-05-20T20:09:48.553Z,27.96
2023-05-20T20:12:26.459Z,27.98
2023-05-20T20:15:02.915Z,27.98
2023-05-20T20:17:34.439Z,27.99
2023-05-20T20:20:12.241Z,28.00
2023-05-20T20:22:45.841Z,28.00
2023-05-20T20:25:22.962Z,27.99
2023-05-20T20:28:01.369Z,28.00
2023-05-20T20:30:37.132Z,28.00
2023-05-20T20:34:15.225Z,27.98
2023-05-20T20:37:09.664Z,27.97
2023-05-20T20:39:48.980Z,27.96
2023-05-20T20:42:57.785Z,27.96
2023-05-20T20:45:38.429Z,27.95
2023-05-20T20:48:19.800Z,27.95
2023-05-20T20:50:54.452Z,27.95
2023-05-20T20:53:30.302Z,27.95
2023-05-20T20:56:04.603Z,27.92
2023-05-20T20:59:01.064Z,27.91
2023-05-20T21:01:37.024Z,27.88
2023-05-20T21:04:16.288Z,27.86
2023-05-20T21:06:51.730Z,27.86
2023-05-20T21:09:27.409Z,27.85
2023-05-20T21:12:07.000Z,27.86
2023-05-20T21:14:40.926Z,27.85
2023-05-20T21:17:18.677Z,27.86
2023-05-20T21:19:51.635Z,27.86
2023-05-20T21:22:28.408Z,27.87
2023-05-20T21:25:03.614Z,27.86
2023-05-20T21:27:36.878Z,27.86
2023-05-20T21:30:16.747Z,27.85
2023-05-20T21:32:49.607Z,27.85
2023-05-20T21:35:20.743Z,27.86
2023-05-20T21:37:52.575Z,27.87
2023-05-20T21:40:25.500Z,27.87
2023-05-20T21:42:56.108Z,27.88
2023-05-20T21:45:29.319Z,27.88
2023-05-20T21:48:00.330Z,27.89
2023-05-20T21:50:31.254Z,27.89
2023-05-20T21:53:02.627Z,27.90
2023-05-20T21:55:35.426Z,27.90
2023-05-20T21:58:05.877Z,27.88
2023-05-20T22:00:37.130Z,27.86
2023-05-20T22:03:06.918Z,27.84
2023-05-20T22:05:38.016Z,27.81
2023-05-20T22:08:09.756Z,27.79
2023-05-20T22:10:42.426Z,27.76
2023-05-20T22:13:14.167Z,27.71
2023-05-20T22:15:44.350Z,27.67
2023-05-20T22:18:15.186Z,27.64
2023-05-20T22:20:46.985Z,27.59
2023-05-20T22:23:17.977Z,27.56
2023-05-20T22:25:50.844Z,27.53
2023-05-20T22:28:21.730Z,27.51
2023-05-20T22:30:52.386Z,27.48
2023-05-20T22:33:23.528Z,27.46
2023-05-20T22:35:54.244Z,27.45
2023-05-20T22:38:24.207Z,27.44
2023-05-20T22:40:57.847Z,27.44
2023-05-20T22:43:28.963Z,27.41
2023-05-20T22:45:59.177Z,27.38
2023-05-20T22:48:30.307Z,27.36
2023-05-20T22:51:01.801Z,27.34
2023-05-20T22:53:31.906Z,27.27
2023-05-20T22:56:06.523Z,27.22
2023-05-20T22:58:40.118Z,27.16
2023-05-20T23:01:10.827Z,27.13
2023-05-20T23:03:42.827Z,27.12
2023-05-20T23:06:13.260Z,27.11
2023-05-20T23:08:44.947Z,27.10
2023-05-20T23:11:19.261Z,27.10
2023-05-20T23:13:50.444Z,27.08
2023-05-20T23:16:22.131Z,27.05
2023-05-20T23:18:53.015Z,27.06
2023-05-20T23:21:23.267Z,27.07
2023-05-20T23:23:53.358Z,27.09
2023-05-20T23:26:29.266Z,27.10
2023-05-20T23:28:59.342Z,27.09
2023-05-20T23:31:30.526Z,27.10
2023-05-20T23:34:01.459Z,27.08
2023-05-20T23:36:35.819Z,27.04
2023-05-20T23:39:06.658Z,27.03
2023-05-20T23:41:40.449Z,27.00
2023-05-20T23:44:10.136Z,26.97
2023-05-20T23:46:40.475Z,26.96
2023-05-20T23:49:12.779Z,26.96
2023-05-20T23:51:43.325Z,26.96
2023-05-20T23:54:16.741Z,26.95
2023-05-20T23:56:51.975Z,26.96
2023-05-20T23:59:22.614Z,26.94
